Terminal Aerodrome Forecast
Issued by NWS

Home | Current Version | Previous Version | Graphics & Text | Print | Product List | Glossary On
Versions: 1 2 3 4 5 6 7 8 9 10 11 12 13 14 15 16 17 18 19 20 21 22
000
FTUS43 KABR 301131 AAC
TAFATY
TAF AMD
KATY 301131Z 3012/0106 31015KT P6SM -SN OVC010
     FM301500 32014G21KT 3SM -SN OVC008
     FM302000 32016KT P6SM -SN OVC008
     FM302100 32015KT P6SM OVC008
     FM010000 32011KT P6SM OVC003=

USA.gov is the U.S. government's official web portal to all federal, state and local government web resources and services.